Time;durP1;ratioP1;P1;durP2;ratioP2;P2;SDS_P1;SDS_P2;PMS_P1;PMS_P2;Temp;Humidity;BMP_temperature;BMP_pressure;BME280_temperature;BME280_humidity;BME280_pressure;Samples;Min_cycle;Max_cycle;Signal;HPM_P1;HPM_P2
2022/07/18 00:00:08;;;;;;;1.90;1.60;;;;;;;21.17;33.05;156808.78;4995267;28;20536;-83
2022/07/18 00:02:34;;;;;;;3.17;1.43;;;;;;;21.12;33.26;156794.44;4977844;28;20452;-83
2022/07/18 00:05:01;;;;;;;3.90;1.87;;;;;;;21.03;33.42;156770.88;4994637;28;20596;-83
2022/07/18 00:07:29;;;;;;;2.67;2.07;;;;;;;20.95;33.75;156750.00;4993872;28;20452;-83
2022/07/18 00:09:56;;;;;;;2.93;1.50;;;;;;;20.87;33.95;156729.09;4993822;28;20488;-83
2022/07/18 00:12:23;;;;;;;1.83;1.63;;;;;;;20.84;33.98;156721.28;4994852;28;20437;-82
2022/07/18 00:14:50;;;;;;;2.00;1.70;;;;;;;20.80;34.42;156712.16;4993781;28;20464;-83
2022/07/18 00:17:16;;;;;;;2.13;1.40;;;;;;;20.75;34.10;156697.81;4993566;28;20948;-83
2022/07/18 00:19:43;;;;;;;2.33;1.63;;;;;;;20.70;34.20;156686.09;4993348;28;20529;-83
2022/07/18 00:22:10;;;;;;;1.70;1.50;;;;;;;20.67;34.43;156678.25;4993449;28;20425;-83
2022/07/18 00:24:38;;;;;;;1.87;1.70;;;;;;;20.62;34.41;156666.47;4993630;28;21139;-82
2022/07/18 00:27:07;;;;;;;2.57;2.10;;;;;;;20.59;34.67;156658.69;4994805;28;20976;-83
2022/07/18 00:29:35;;;;;;;2.70;1.90;;;;;;;20.53;34.74;156643.03;4994692;28;20524;-83
2022/07/18 00:32:02;;;;;;;2.50;1.80;;;;;;;20.46;35.19;156624.78;4993394;28;20450;-83
2022/07/18 00:34:29;;;;;;;2.13;1.73;;;;;;;20.45;35.55;156620.84;4960656;28;20477;-83
2022/07/18 00:36:55;;;;;;;1.90;1.70;;;;;;;20.36;35.60;156598.66;4994960;28;20484;-83
2022/07/18 00:39:22;;;;;;;1.70;1.60;;;;;;;20.37;35.63;156599.97;4994830;28;20462;-83
2022/07/18 00:41:50;;;;;;;2.00;1.80;;;;;;;20.35;35.77;156596.06;4994878;28;20445;-82
2022/07/18 00:44:18;;;;;;;3.33;2.00;;;;;;;20.29;36.06;156579.09;4960978;28;20441;-82
2022/07/18 00:46:45;;;;;;;1.83;1.67;;;;;;;20.25;35.82;156570.00;4976836;28;20457;-82
2022/07/18 00:49:12;;;;;;;1.97;1.60;;;;;;;20.25;35.77;156570.00;4988412;28;20473;-83
2022/07/18 00:51:39;;;;;;;1.70;1.60;;;;;;;20.22;35.98;156562.13;4957907;28;20454;-82
2022/07/18 00:54:05;;;;;;;2.77;1.60;;;;;;;20.19;35.68;156552.97;4986699;28;20437;-83
2022/07/18 00:56:32;;;;;;;3.23;2.30;;;;;;;20.16;35.84;156545.13;4977127;28;20533;-82
2022/07/18 00:59:00;;;;;;;5.13;1.67;;;;;;;20.05;36.03;156519.06;4960479;28;20441;-83
2022/07/18 01:01:46;;;;;;;5.53;1.83;;;;;;;20.05;36.00;156517.75;4977245;28;20461;-83
2022/07/18 01:04:15;;;;;;;2.27;1.73;;;;;;;19.97;36.22;156496.88;4994098;28;20429;-83
2022/07/18 01:06:42;;;;;;;1.90;1.70;;;;;;;19.95;36.25;156491.69;4976820;28;20445;-83
2022/07/18 01:09:09;;;;;;;2.10;1.90;;;;;;;19.93;36.44;156486.47;4994027;28;20445;-83
2022/07/18 01:11:36;;;;;;;1.53;1.37;;;;;;;19.91;36.24;156482.53;4976811;28;20457;-83
2022/07/18 01:14:05;;;;;;;5.73;1.50;;;;;;;19.88;35.94;156473.44;4977313;28;20623;-83
2022/07/18 01:16:32;;;;;;;1.73;1.50;;;;;;;19.84;36.34;156463.00;4976881;28;20540;-83
2022/07/18 01:18:59;;;;;;;2.87;1.60;;;;;;;19.85;36.33;156465.63;4992229;28;20932;-82
2022/07/18 01:21:27;;;;;;;2.40;1.60;;;;;;;19.79;36.36;156449.94;4976666;28;20444;-83
2022/07/18 01:23:54;;;;;;;2.07;1.37;;;;;;;19.73;36.64;156434.28;4976301;28;20540;-83
2022/07/18 01:26:21;;;;;;;2.53;1.80;;;;;;;19.71;36.47;156430.41;4993497;28;20484;-82
2022/07/18 01:28:48;;;;;;;3.00;1.80;;;;;;;19.73;36.53;156435.59;4976140;28;20812;-83
2022/07/18 01:31:15;;;;;;;2.33;1.23;;;;;;;19.74;36.50;156438.22;4993926;28;20480;-83
2022/07/18 01:33:42;;;;;;;1.50;1.40;;;;;;;19.73;36.50;156435.59;4976001;28;20824;-82
2022/07/18 01:36:09;;;;;;;2.10;1.80;;;;;;;19.67;36.37;156418.69;4976187;28;20808;-83
2022/07/18 01:38:38;;;;;;;3.77;1.27;;;;;;;19.61;36.66;156403.03;4975965;28;20467;-83
2022/07/18 01:41:05;;;;;;;2.07;1.43;;;;;;;19.58;37.00;156395.19;4975749;28;20442;-83
2022/07/18 01:43:33;;;;;;;2.50;1.67;;;;;;;19.51;37.59;156376.97;4993135;28;20834;-82
2022/07/18 01:46:01;;;;;;;1.87;1.27;;;;;;;19.47;37.94;156366.50;4975615;28;20563;-83
2022/07/18 01:48:27;;;;;;;1.90;1.70;;;;;;;19.43;38.45;156358.69;4993538;28;20496;-83
2022/07/18 01:50:54;;;;;;;2.60;1.77;;;;;;;19.38;38.41;156345.66;4975801;28;20543;-82
2022/07/18 01:53:24;;;;;;;2.73;1.60;;;;;;;19.35;38.65;156337.78;4975753;28;20444;-82
2022/07/18 01:55:52;;;;;;;1.67;1.57;;;;;;;19.34;38.32;156335.19;4975933;28;21019;-82
2022/07/18 01:58:18;;;;;;;2.97;1.60;;;;;;;19.35;38.50;156336.50;4991761;28;20882;-82
2022/07/18 02:00:45;;;;;;;2.30;1.40;;;;;;;19.29;38.67;156322.16;4992801;28;20548;-82
2022/07/18 02:03:12;;;;;;;2.13;1.90;;;;;;;19.19;38.75;156296.13;4975653;28;20441;-82
2022/07/18 02:05:38;;;;;;;2.10;1.87;;;;;;;19.18;39.13;156292.19;4975689;28;20513;-83
2022/07/18 02:08:05;;;;;;;3.43;1.70;;;;;;;19.13;39.80;156280.47;4959127;28;20438;-83
2022/07/18 02:10:32;;;;;;;1.80;1.70;;;;;;;19.13;40.92;156279.16;4991466;28;20448;-82
2022/07/18 02:13:00;;;;;;;3.50;2.50;;;;;;;19.12;41.51;156276.53;4993119;28;20440;-82
2022/07/18 02:15:27;;;;;;;2.20;2.00;;;;;;;19.08;41.55;156266.13;4975753;28;20492;-83
2022/07/18 02:17:54;;;;;;;2.40;2.20;;;;;;;19.05;41.35;156259.59;4975693;28;20445;-83
2022/07/18 02:20:20;;;;;;;3.77;2.33;;;;;;;19.01;43.14;156249.16;4993261;28;20446;-82
2022/07/18 02:22:47;;;;;;;2.90;2.60;;;;;;;19.03;44.09;156254.41;4975344;28;20855;-82
2022/07/18 02:25:14;;;;;;;3.37;3.07;;;;;;;18.97;44.67;156238.75;4975260;28;20473;-82
2022/07/18 02:27:41;;;;;;;3.47;2.67;;;;;;;18.98;44.79;156241.38;4992334;28;20501;-82
2022/07/18 02:30:11;;;;;;;5.50;3.00;;;;;;;18.95;44.55;156232.25;4974755;28;20556;-82
2022/07/18 02:32:38;;;;;;;2.70;2.50;;;;;;;18.90;44.33;156220.53;4958983;28;20512;-82
2022/07/18 02:35:06;;;;;;;3.57;2.70;;;;;;;18.79;44.69;156191.84;4958561;28;20862;-82
2022/07/18 02:37:33;;;;;;;3.03;2.67;;;;;;;18.74;44.95;156180.09;4975328;28;20959;-83
2022/07/18 02:39:59;;;;;;;2.80;2.50;;;;;;;18.69;45.09;156165.81;4992011;28;20991;-82
2022/07/18 02:42:27;;;;;;;3.30;2.83;;;;;;;18.64;45.13;156152.75;4974946;28;20456;-82
2022/07/18 02:44:54;;;;;;;3.17;2.87;;;;;;;18.58;45.32;156137.13;4991967;28;20449;-83
2022/07/18 02:47:22;;;;;;;4.53;3.33;;;;;;;18.55;45.56;156129.31;4974900;28;20477;-82
2022/07/18 02:49:49;;;;;;;3.07;2.77;;;;;;;18.54;45.65;156126.69;4991945;28;20444;-82
2022/07/18 02:52:15;;;;;;;5.10;2.47;;;;;;;18.50;45.78;156116.31;4992320;28;20937;-82
2022/07/18 02:54:42;;;;;;;3.30;2.63;;;;;;;18.50;46.07;156116.31;4974957;28;20452;-82
2022/07/18 02:57:09;;;;;;;3.93;2.63;;;;;;;18.46;46.55;156105.81;4974931;28;20426;-82
2022/07/18 02:59:35;;;;;;;3.20;2.90;;;;;;;18.46;46.82;156105.81;4974476;28;20445;-82
2022/07/18 03:02:03;;;;;;;3.10;2.80;;;;;;;18.39;46.44;156087.59;4975147;28;20971;-83
2022/07/18 03:04:31;;;;;;;4.90;3.60;;;;;;;18.36;46.32;156079.75;4974682;28;20447;-82
2022/07/18 03:06:57;;;;;;;3.30;3.00;;;;;;;18.33;46.73;156071.94;4991047;28;20462;-82
2022/07/18 03:09:27;;;;;;;3.00;2.70;;;;;;;18.23;46.58;156048.53;4974445;28;20489;-82
2022/07/18 03:11:54;;;;;;;3.47;3.17;;;;;;;18.27;46.79;156058.91;4992144;28;20426;-82
2022/07/18 03:14:22;;;;;;;2.60;2.40;;;;;;;18.27;46.78;156058.91;4974300;28;20847;-82
2022/07/18 03:16:48;;;;;;;3.20;2.90;;;;;;;18.25;46.79;156052.41;4974471;28;20452;-82
2022/07/18 03:19:15;;;;;;;4.90;3.60;;;;;;;18.22;47.00;156045.91;4974791;28;20837;-82
2022/07/18 03:21:43;;;;;;;3.80;3.47;;;;;;;18.17;47.40;156032.88;4974411;28;20446;-82
2022/07/18 03:24:11;;;;;;;3.90;3.60;;;;;;;18.15;48.04;156027.69;4990718;28;20792;-82
2022/07/18 03:26:38;;;;;;;4.00;3.60;;;;;;;18.11;48.59;156017.25;4991066;28;20485;-82
2022/07/18 03:29:05;;;;;;;4.23;3.83;;;;;;;18.08;48.93;156008.16;4991439;28;20577;-82
2022/07/18 03:31:31;;;;;;;5.63;4.07;;;;;;;18.07;49.29;156005.53;4991902;28;20441;-82
2022/07/18 03:33:58;;;;;;;3.10;2.80;;;;;;;18.00;49.47;155987.31;4974603;28;20491;-82
2022/07/18 03:36:25;;;;;;;3.40;3.10;;;;;;;17.99;49.21;155986.00;4992444;28;20905;-82
2022/07/18 03:38:53;;;;;;;3.47;3.17;;;;;;;17.95;49.62;155975.56;4991849;28;20437;-82
2022/07/18 03:41:20;;;;;;;3.20;2.90;;;;;;;17.94;50.13;155971.69;4991917;28;20437;-82
2022/07/18 03:43:46;;;;;;;3.40;3.10;;;;;;;17.93;49.51;155970.38;4974126;28;20556;-82
2022/07/18 03:46:13;;;;;;;3.50;2.80;;;;;;;17.91;49.61;155963.88;4990621;28;20508;-82
2022/07/18 03:48:40;;;;;;;3.63;2.90;;;;;;;17.88;49.54;155956.03;4974512;28;20456;-82
2022/07/18 03:51:06;;;;;;;4.60;3.30;;;;;;;17.81;50.33;155939.16;4974351;28;20460;-82
2022/07/18 03:53:33;;;;;;;5.23;3.40;;;;;;;17.87;50.12;155953.47;4974621;28;20480;-82
2022/07/18 03:56:02;;;;;;;3.93;3.50;;;;;;;17.90;50.17;155961.25;4974498;28;20544;-82
2022/07/18 03:58:28;;;;;;;3.73;3.43;;;;;;;17.89;50.17;155959.97;4991991;28;20524;-82
2022/07/18 04:00:55;;;;;;;3.63;3.33;;;;;;;17.88;50.42;155956.03;4991666;28;20549;-82
2022/07/18 04:03:22;;;;;;;3.50;3.20;;;;;;;17.85;50.29;155949.53;4974290;28;20477;-82
2022/07/18 04:05:49;;;;;;;3.97;3.67;;;;;;;17.89;50.45;155959.97;4991183;28;20883;-82
2022/07/18 04:08:16;;;;;;;4.07;3.67;;;;;;;17.91;50.53;155963.88;4991946;28;20536;-82
2022/07/18 04:10:43;;;;;;;4.23;3.83;;;;;;;17.93;50.66;155969.06;4977510;28;20548;-82
2022/07/18 04:13:11;;;;;;;4.00;3.60;;;;;;;17.95;50.93;155974.31;4977898;28;20529;-83
2022/07/18 04:15:38;;;;;;;3.47;3.17;;;;;;;17.96;51.31;155978.19;4977520;28;20531;-82
2022/07/18 04:18:05;;;;;;;3.40;3.10;;;;;;;17.98;51.29;155983.38;4977565;28;20813;-81
2022/07/18 04:20:33;;;;;;;4.00;3.70;;;;;;;18.02;51.67;155993.81;4994807;28;20847;-81
2022/07/18 04:23:01;;;;;;;4.30;3.97;;;;;;;18.08;52.03;156008.16;4977612;28;20441;-81
2022/07/18 04:25:30;;;;;;;4.70;4.30;;;;;;;18.12;52.73;156018.56;4977523;28;20552;-80
2022/07/18 04:27:57;;;;;;;7.20;4.60;;;;;;;18.19;53.03;156038.09;4977501;28;20568;-82
2022/07/18 04:30:28;;;;;;;6.40;4.70;;;;;;;18.27;52.79;156058.91;4977619;28;20441;-81
2022/07/18 04:32:55;;;;;;;6.93;4.67;;;;;;;18.37;53.75;156082.38;4977333;28;20461;-83
2022/07/18 04:35:22;;;;;;;5.03;4.63;;;;;;;18.50;53.77;156116.31;4977131;28;20552;-81
2022/07/18 04:37:49;;;;;;;5.10;4.57;;;;;;;18.72;53.63;156173.59;4977099;28;20815;-81
2022/07/18 04:40:16;;;;;;;5.23;4.50;;;;;;;18.97;53.23;156238.75;4994796;28;20442;-80
2022/07/18 04:42:43;;;;;;;5.00;4.30;;;;;;;19.29;53.06;156322.16;4976665;28;20453;-81
2022/07/18 04:45:11;;;;;;;5.77;4.33;;;;;;;19.58;52.29;156395.19;4993379;28;20461;-81
2022/07/18 04:47:39;;;;;;;5.63;4.90;;;;;;;19.87;51.86;156470.81;4993191;28;20466;-81
2022/07/18 04:50:06;;;;;;;4.93;4.53;;;;;;;20.21;51.56;156558.19;4994240;28;20537;-81
2022/07/18 04:52:37;;;;;;;5.97;4.50;;;;;;;20.41;50.53;156611.69;4976619;28;20449;-81
2022/07/18 04:55:04;;;;;;;9.63;4.17;;;;;;;20.59;50.26;156658.69;4977106;28;20460;-81
2022/07/18 04:57:31;;;;;;;5.07;4.50;;;;;;;20.90;49.58;156738.25;4976826;28;20536;-81
2022/07/18 04:59:58;;;;;;;4.13;3.73;;;;;;;20.98;49.46;156757.81;4976695;28;20924;-81
2022/07/18 05:02:25;;;;;;;4.50;4.10;;;;;;;20.73;49.69;156692.63;4994530;28;20476;-81
2022/07/18 05:04:53;;;;;;;4.60;4.20;;;;;;;20.91;49.53;156740.88;4994175;28;20437;-81
2022/07/18 05:07:20;;;;;;;5.20;4.70;;;;;;;21.09;49.07;156786.59;4976787;28;20523;-81
2022/07/18 05:09:46;;;;;;;4.53;4.23;;;;;;;21.34;48.56;156851.81;4976245;28;20842;-81
2022/07/18 05:12:13;;;;;;;4.60;4.27;;;;;;;21.59;48.46;156917.13;4976672;28;20474;-83
2022/07/18 05:14:39;;;;;;;5.00;4.60;;;;;;;21.81;48.16;156974.56;4994054;28;20785;-83
2022/07/18 05:17:06;;;;;;;4.73;4.13;;;;;;;21.93;47.80;157004.63;4993700;28;20532;-83
2022/07/18 05:19:33;;;;;;;5.90;4.17;;;;;;;22.06;47.38;157038.56;4976369;28;21212;-83
2022/07/18 05:22:01;;;;;;;5.47;4.97;;;;;;;22.17;47.30;157066.00;4976024;28;20824;-83
2022/07/18 05:24:28;;;;;;;9.10;4.43;;;;;;;22.33;47.03;157107.78;4976430;28;20945;-82
2022/07/18 05:26:54;;;;;;;4.90;4.47;;;;;;;22.58;47.01;157173.13;4993273;28;20477;-82
2022/07/18 05:29:21;;;;;;;5.77;4.90;;;;;;;22.84;46.50;157239.78;4976566;28;20442;-82
2022/07/18 05:31:48;;;;;;;13.27;4.47;;;;;;;23.06;45.96;157296.00;4993843;28;20434;-81
2022/07/18 05:34:14;;;;;;;4.87;4.47;;;;;;;23.29;45.70;157356.09;4993987;28;20438;-81
2022/07/18 05:36:41;;;;;;;6.47;4.67;;;;;;;23.48;45.10;157405.81;4994036;28;20436;-79
2022/07/18 05:39:09;;;;;;;4.00;3.70;;;;;;;23.52;45.22;157416.25;4993657;28;20437;-79
2022/07/18 05:41:36;;;;;;;6.40;5.80;;;;;;;23.83;44.82;157497.28;4993267;28;20433;-79
2022/07/18 05:44:03;;;;;;;4.73;4.33;;;;;;;23.89;44.70;157513.00;4991497;28;20444;-79
2022/07/18 05:46:30;;;;;;;4.47;4.07;;;;;;;24.08;44.07;157561.38;4974042;28;20580;-83
2022/07/18 05:48:57;;;;;;;4.83;4.30;;;;;;;24.23;42.87;157601.97;4991958;28;20430;-81
2022/07/18 05:51:24;;;;;;;3.93;3.53;;;;;;;24.19;43.01;157591.53;4974169;28;20964;-81
2022/07/18 05:53:51;;;;;;;4.00;3.60;;;;;;;24.28;43.37;157612.44;4991559;28;20465;-81
2022/07/18 05:56:19;;;;;;;4.23;3.83;;;;;;;24.63;43.07;157703.97;4990343;28;20463;-81
2022/07/18 05:58:45;;;;;;;4.40;4.00;;;;;;;24.68;42.77;157717.06;4974778;28;20472;-80
2022/07/18 06:01:16;;;;;;;5.80;4.63;;;;;;;24.93;42.04;157782.53;4975551;28;20454;-80
2022/07/18 06:03:43;;;;;;;4.17;3.87;;;;;;;25.18;41.70;157847.94;4991740;28;20457;-81
2022/07/18 06:06:10;;;;;;;4.47;3.97;;;;;;;25.34;40.80;157888.50;4975662;28;20532;-80
2022/07/18 06:08:37;;;;;;;4.53;4.13;;;;;;;25.53;40.31;157936.97;4975379;28;20929;-81
2022/07/18 06:11:06;;;;;;;4.67;4.17;;;;;;;25.67;40.30;157973.66;4975158;28;20477;-80
2022/07/18 06:13:34;;;;;;;4.67;4.20;;;;;;;25.74;39.63;157993.28;4991362;28;20445;-83
2022/07/18 06:16:01;;;;;;;5.03;4.47;;;;;;;25.97;39.41;158052.22;4975474;28;20889;-81
2022/07/18 06:18:28;;;;;;;4.73;4.30;;;;;;;26.13;39.23;158094.16;4992639;28;20786;-81
2022/07/18 06:20:54;;;;;;;6.27;4.23;;;;;;;26.41;37.71;158167.47;4992783;28;20429;-82
2022/07/18 06:23:21;;;;;;;5.13;4.00;;;;;;;26.51;37.04;158193.66;4975158;28;20445;-82
2022/07/18 06:25:48;;;;;;;4.43;4.03;;;;;;;26.19;36.43;158109.84;4992737;28;20448;-82
2022/07/18 06:28:15;;;;;;;4.30;4.00;;;;;;;25.98;36.83;158054.81;4975134;28;20572;-82
2022/07/18 06:30:43;;;;;;;4.30;4.00;;;;;;;26.02;37.42;158065.31;4992013;28;20493;-82
2022/07/18 06:33:10;;;;;;;4.00;3.70;;;;;;;26.28;36.92;158133.44;4993002;28;20751;-82
2022/07/18 06:35:37;;;;;;;7.10;4.07;;;;;;;26.82;35.95;158272.31;4975181;28;20454;-82
2022/07/18 06:38:03;;;;;;;4.37;3.97;;;;;;;27.16;36.24;158362.69;4992600;28;20517;-82
2022/07/18 06:40:30;;;;;;;4.13;3.83;;;;;;;27.55;35.49;158463.66;4974734;28;20564;-82
2022/07/18 06:42:57;;;;;;;4.30;4.00;;;;;;;27.79;34.52;158526.59;4964382;28;20455;-82
2022/07/18 06:45:23;;;;;;;5.23;4.50;;;;;;;27.75;34.66;158516.06;4971638;28;20446;-82
2022/07/18 06:47:52;;;;;;;6.03;3.47;;;;;;;27.77;34.53;158520.03;4971674;28;20467;-82
2022/07/18 06:50:19;;;;;;;5.87;4.00;;;;;;;27.99;35.50;158576.34;4976581;28;20925;-82
2022/07/18 06:52:46;;;;;;;4.40;4.00;;;;;;;28.05;34.85;158593.47;4992409;28;20433;-82
2022/07/18 06:55:14;;;;;;;3.77;3.47;;;;;;;28.11;33.80;158609.22;4992500;28;20869;-82
2022/07/18 06:57:42;;;;;;;4.70;3.83;;;;;;;28.19;32.89;158630.19;4991060;28;20967;-82
2022/07/18 07:00:11;;;;;;;3.93;3.63;;;;;;;28.29;32.98;158655.09;4978535;28;20438;-82
2022/07/18 07:02:41;;;;;;;5.43;4.00;;;;;;;28.44;33.13;158694.41;4955075;28;20442;-83
2022/07/18 07:05:10;;;;;;;3.60;3.40;;;;;;;28.56;32.81;158725.91;4978109;28;20774;-82
2022/07/18 07:07:37;;;;;;;4.60;3.87;;;;;;;28.64;32.53;158746.94;4961121;28;20992;-82
2022/07/18 07:10:04;;;;;;;6.17;3.53;;;;;;;28.66;32.46;158750.84;4977438;28;20453;-82
2022/07/18 07:12:31;;;;;;;5.17;3.70;;;;;;;28.70;31.89;158762.66;4974155;28;20440;-82
2022/07/18 07:14:57;;;;;;;5.80;3.30;;;;;;;28.83;32.62;158796.75;5004155;28;20472;-82
2022/07/18 07:17:24;;;;;;;3.80;3.50;;;;;;;28.91;32.02;158817.72;4993781;28;20527;-82
2022/07/18 07:19:51;;;;;;;4.10;3.60;;;;;;;29.06;31.88;158854.47;4993724;28;20484;-82
2022/07/18 07:22:19;;;;;;;4.00;3.60;;;;;;;29.19;31.67;158888.59;4993616;28;20436;-82
2022/07/18 07:24:46;;;;;;;4.63;4.00;;;;;;;29.52;30.54;158976.53;5000793;28;20927;-83
2022/07/18 07:27:12;;;;;;;4.00;3.53;;;;;;;29.62;30.36;159000.16;4983649;28;20484;-82
2022/07/18 07:29:39;;;;;;;3.80;3.60;;;;;;;29.36;30.93;158933.25;4990453;28;20937;-82
2022/07/18 07:32:06;;;;;;;5.23;3.87;;;;;;;29.47;30.69;158962.09;4991610;28;20840;-84
2022/07/18 07:34:33;;;;;;;4.80;4.40;;;;;;;29.58;30.32;158992.28;4991888;28;20472;-83
2022/07/18 07:37:00;;;;;;;6.30;3.93;;;;;;;29.47;31.68;158962.09;4974450;28;20537;-83
2022/07/18 07:39:28;;;;;;;5.67;4.00;;;;;;;29.44;30.88;158954.25;4991876;28;20848;-83
2022/07/18 07:41:54;;;;;;;4.80;3.80;;;;;;;29.84;30.82;159059.25;4987183;28;20488;-83
2022/07/18 07:44:21;;;;;;;7.60;3.90;;;;;;;29.97;30.48;159093.38;4982313;28;20849;-83
2022/07/18 07:46:48;;;;;;;4.80;4.40;;;;;;;29.97;30.16;159093.38;4986428;28;20488;-83
2022/07/18 07:49:15;;;;;;;3.70;3.30;;;;;;;30.18;29.66;159148.50;4984970;28;20512;-83
2022/07/18 07:51:41;;;;;;;7.20;4.07;;;;;;;30.18;29.34;159148.50;4978523;28;20537;-84
2022/07/18 07:54:08;;;;;;;3.53;3.33;;;;;;;30.24;29.65;159161.63;4959226;28;20530;-83
2022/07/18 07:56:36;;;;;;;3.93;3.63;;;;;;;30.70;28.88;159283.81;4944132;28;20960;-84
2022/07/18 07:59:03;;;;;;;4.93;3.30;;;;;;;30.82;29.38;159313.97;4983708;28;20474;-84
2022/07/18 08:01:30;;;;;;;3.80;3.50;;;;;;;30.66;29.04;159273.28;4984570;28;20728;-84
2022/07/18 08:03:56;;;;;;;3.60;3.30;;;;;;;30.89;28.88;159332.38;4994218;28;20525;-84
2022/07/18 08:06:23;;;;;;;6.20;3.60;;;;;;;31.33;28.19;159448.00;4995700;28;20465;-83
2022/07/18 08:08:50;;;;;;;4.17;3.47;;;;;;;31.64;27.84;159528.16;4995172;28;20465;-84
2022/07/18 08:11:16;;;;;;;4.53;3.33;;;;;;;31.66;26.95;159532.16;4995374;28;20538;-84
2022/07/18 08:13:44;;;;;;;4.37;3.60;;;;;;;31.55;27.66;159504.56;4995469;28;20955;-84
2022/07/18 08:16:11;;;;;;;3.00;2.80;;;;;;;31.66;27.57;159532.16;4995326;28;20824;-84
2022/07/18 08:18:38;;;;;;;4.07;3.73;;;;;;;31.84;26.76;159580.75;4994933;28;20944;-84
2022/07/18 08:21:04;;;;;;;3.80;3.20;;;;;;;32.01;27.83;159622.84;4992305;28;20476;-84
2022/07/18 08:23:31;;;;;;;2.90;2.70;;;;;;;32.24;27.28;159684.63;4993432;28;20480;-84
2022/07/18 08:25:58;;;;;;;3.83;3.43;;;;;;;32.24;26.67;159683.28;5000817;28;20547;-84
2022/07/18 08:28:25;;;;;;;4.17;3.73;;;;;;;32.16;28.20;159662.28;4996001;28;21039;-84
2022/07/18 08:30:53;;;;;;;3.47;3.27;;;;;;;32.41;27.63;159727.97;4996134;28;20692;-84
2022/07/18 08:33:19;;;;;;;7.87;3.00;;;;;;;32.65;27.36;159791.09;4976490;28;20954;-84
2022/07/18 08:35:46;;;;;;;6.90;3.60;;;;;;;32.90;27.67;159855.53;4982512;28;20547;-84
2022/07/18 08:38:13;;;;;;;9.90;4.17;;;;;;;32.75;27.95;159816.13;4995386;28;20539;-84
2022/07/18 08:40:40;;;;;;;5.77;3.70;;;;;;;32.53;27.46;159758.25;4985522;28;20513;-84
2022/07/18 08:43:07;;;;;;;3.57;3.27;;;;;;;32.90;26.71;159856.88;4983315;28;20460;-84
2022/07/18 08:45:33;;;;;;;3.33;3.13;;;;;;;32.46;27.41;159741.16;4969255;28;20458;-84
2022/07/18 08:48:02;;;;;;;4.30;3.90;;;;;;;32.25;27.18;159685.94;4973472;28;20478;-84
2022/07/18 08:50:28;;;;;;;3.83;3.53;;;;;;;32.62;27.90;159781.94;4988473;28;20455;-84
2022/07/18 08:52:56;;;;;;;4.50;4.10;;;;;;;32.47;28.36;159743.75;4976599;28;20781;-84
2022/07/18 08:55:23;;;;;;;3.90;3.60;;;;;;;32.37;28.50;159718.78;4969744;28;20714;-84
2022/07/18 08:57:49;;;;;;;3.77;3.47;;;;;;;31.95;27.69;159608.34;4991710;28;20492;-84
2022/07/18 09:00:16;;;;;;;3.77;3.47;;;;;;;31.96;27.74;159610.94;4975344;28;20438;-81
2022/07/18 09:02:44;;;;;;;11.70;4.50;;;;;;;32.01;28.20;159624.13;4956532;28;20464;-81
2022/07/18 09:05:20;;;;;;;4.10;3.70;;;;;;;32.19;27.61;159671.47;4978891;28;20503;-81
2022/07/18 09:07:48;;;;;;;4.00;3.70;;;;;;;32.59;27.27;159774.06;4979291;28;20492;-81
2022/07/18 09:10:16;;;;;;;3.60;3.30;;;;;;;32.72;27.65;159808.22;4994137;28;20492;-81
2022/07/18 09:12:56;;;;;;;4.13;3.83;;;;;;;33.07;27.36;159900.25;4975753;28;20437;-81
2022/07/18 09:15:23;;;;;;;4.23;3.83;;;;;;;33.15;26.64;159920.03;4978992;28;20542;-81
2022/07/18 09:17:51;;;;;;;3.73;3.30;;;;;;;33.27;27.11;159951.56;4990762;28;20857;-81
2022/07/18 09:20:19;;;;;;;6.63;4.00;;;;;;;33.01;25.62;159884.47;4989614;28;20444;-81
2022/07/18 09:22:48;;;;;;;3.50;3.20;;;;;;;32.39;26.26;159722.72;4989767;28;20456;-81
2022/07/18 09:25:16;;;;;;;4.70;3.50;;;;;;;31.86;26.80;159584.69;4991115;28;20805;-81
2022/07/18 09:27:45;;;;;;;4.70;3.60;;;;;;;31.64;26.17;159526.91;4974127;28;21082;-81
2022/07/18 09:30:25;;;;;;;4.20;3.57;;;;;;;31.78;26.57;159563.66;4990615;28;20457;-81
2022/07/18 09:32:55;;;;;;;5.10;3.70;;;;;;;32.31;27.30;159703.00;4992271;28;20440;-81
2022/07/18 09:35:26;;;;;;;3.83;3.40;;;;;;;31.71;27.26;159545.28;4992473;28;20551;-81
2022/07/18 09:37:58;;;;;;;3.90;3.60;;;;;;;31.28;27.17;159433.56;4992410;28;20524;-81
2022/07/18 09:40:26;;;;;;;4.13;3.40;;;;;;;31.48;27.59;159484.84;4992903;28;20552;-81
2022/07/18 09:42:55;;;;;;;3.60;3.30;;;;;;;32.26;25.86;159689.88;4986985;28;20458;-81
2022/07/18 09:45:23;;;;;;;3.13;2.93;;;;;;;32.98;24.18;159876.59;4973297;28;20453;-81
2022/07/18 09:47:52;;;;;;;3.20;3.00;;;;;;;33.10;24.08;159908.16;4981124;28;20511;-81
2022/07/18 09:50:26;;;;;;;3.50;3.20;;;;;;;33.39;23.73;159983.13;5011189;28;20441;-81
2022/07/18 09:53:00;;;;;;;4.60;3.27;;;;;;;33.68;23.03;160059.44;5008239;28;20428;-81
2022/07/18 09:55:27;;;;;;;3.90;3.47;;;;;;;33.54;24.40;160023.94;4995118;28;20938;-81
2022/07/18 09:57:59;;;;;;;3.80;3.50;;;;;;;33.48;24.77;160008.13;4997462;28;20430;-81
2022/07/18 10:00:26;;;;;;;4.07;3.77;;;;;;;33.56;24.27;160029.22;4973233;28;20459;-81
2022/07/18 10:02:53;;;;;;;3.77;3.37;;;;;;;33.30;24.24;159959.47;4992907;28;20428;-81
2022/07/18 10:05:20;;;;;;;4.20;3.43;;;;;;;33.39;24.42;159983.13;4992811;28;20505;-81
2022/07/18 10:07:48;;;;;;;3.83;3.10;;;;;;;33.95;24.23;160129.16;4993477;28;20843;-81
2022/07/18 10:10:15;;;;;;;3.93;3.57;;;;;;;33.72;23.86;160070.00;5011194;28;20612;-81
2022/07/18 10:12:42;;;;;;;4.50;3.40;;;;;;;33.95;24.15;160129.16;5011196;28;20490;-81
2022/07/18 10:15:10;;;;;;;3.70;3.40;;;;;;;33.22;23.78;159939.75;4980782;28;20471;-81
2022/07/18 10:17:37;;;;;;;3.70;3.40;;;;;;;33.30;23.80;159960.78;4986205;28;20425;-81
2022/07/18 10:20:06;;;;;;;3.53;3.23;;;;;;;32.53;24.54;159758.25;4988826;28;20460;-81
2022/07/18 10:22:36;;;;;;;4.63;3.37;;;;;;;32.33;24.99;159706.94;4969684;28;20812;-81
2022/07/18 10:25:06;;;;;;;3.87;3.57;;;;;;;32.29;24.95;159696.44;4984158;28;20441;-81
2022/07/18 10:27:49;;;;;;;3.93;3.53;;;;;;;32.27;24.47;159692.50;4986198;28;20538;-81
2022/07/18 10:30:17;;;;;;;3.60;3.30;;;;;;;32.15;23.72;159659.63;4988552;28;20449;-81
2022/07/18 10:32:44;;;;;;;3.50;3.20;;;;;;;31.84;24.37;159579.44;4991442;28;20442;-81
2022/07/18 10:35:11;;;;;;;3.10;2.90;;;;;;;32.50;24.93;159751.63;4979776;28;20453;-81
2022/07/18 10:37:38;;;;;;;3.50;3.20;;;;;;;31.89;24.75;159592.56;5001272;28;20785;-81
2022/07/18 10:40:27;;;;;;;5.10;3.37;;;;;;;31.52;25.00;159495.34;4989747;28;20523;-81
2022/07/18 10:43:38;;;;;;;3.27;3.07;;;;;;;31.48;24.68;159486.13;5009351;28;20495;-81
2022/07/18 10:46:06;;;;;;;3.33;3.03;;;;;;;31.25;24.13;159427.00;4985353;28;20451;-77
2022/07/18 10:48:52;;;;;;;3.60;3.30;;;;;;;31.08;24.08;159382.34;5003554;28;20480;-77
2022/07/18 10:51:20;;;;;;;3.37;3.17;;;;;;;30.62;24.50;159261.47;4974636;28;20543;-76
2022/07/18 10:54:09;;;;;;;3.47;3.17;;;;;;;30.96;24.57;159349.50;4991109;28;20536;-77
2022/07/18 10:57:08;;;;;;;3.23;2.90;;;;;;;31.18;24.34;159408.63;4991421;28;20479;-76
2022/07/18 10:59:36;;;;;;;2.83;2.63;;;;;;;31.09;24.56;159384.94;4970531;28;20463;-76
2022/07/18 11:02:06;;;;;;;3.30;3.00;;;;;;;31.24;25.03;159423.06;4976175;28;20538;-76
2022/07/18 11:04:38;;;;;;;3.10;2.90;;;;;;;30.97;24.89;159353.47;4993340;28;20444;-77
2022/07/18 11:07:10;;;;;;;3.60;3.30;;;;;;;30.88;25.07;159329.75;4992168;28;20822;-76
2022/07/18 11:09:39;;;;;;;3.20;2.90;;;;;;;30.57;24.79;159248.34;4974163;28;20509;-76
2022/07/18 11:12:24;;;;;;;2.93;2.63;;;;;;;30.95;25.33;159348.16;4991097;28;20482;-76
2022/07/18 11:15:10;;;;;;;9.73;3.20;;;;;;;31.24;25.06;159424.34;4990580;28;20789;-77
2022/07/18 11:18:00;;;;;;;3.03;2.83;;;;;;;31.44;25.24;159474.28;4994382;28;20747;-81
2022/07/18 11:20:29;;;;;;;3.27;2.97;;;;;;;31.47;24.63;159483.53;4997589;28;20555;-76
2022/07/18 11:22:56;;;;;;;2.67;2.47;;;;;;;31.43;23.94;159472.94;4987383;28;20514;-76
2022/07/18 11:25:26;;;;;;;3.43;2.43;;;;;;;31.06;23.87;159377.06;4995139;28;20455;-76
2022/07/18 11:27:54;;;;;;;3.40;2.60;;;;;;;30.79;24.08;159304.81;4994371;28;20856;-76